Main page
METAR-TAF:

METAR-TAF

Airports :

Córdoba Airport

Córdoba, Spain

latitude: 37-51N, longitude: 004-51W, elevation: 90 m

Current weather observation

The report was made 32 minutes ago, at 09:30 UTC
Calm wind
Temperature 13°C
Humidity 94%
Pressure 1016 hPa
Visibility: 1000 m
Overcast at a height of 1300 ft
light rain, mist

METAR: LEBA 060930Z 00000KT 2000 1000NE -RA BR OVC013 13/12 Q1016

Time: 11:02 (10:02 UTC)

Forecast

The report was made 2 hours and 2 minutes ago, at 08:00 UTC
Forecast valid from 06 at 09 UTC to 07 at 09 UTC
Wind 3 kt from the West/Southwest
Visibility 10 km or more
Scattered clouds at a height of 3000 ft
Probability 30% :
Temporary
from 06 at 09 UTC to 06 at 12 UTC
Visibility: 1000 m
Broken clouds at a height of 1200 ft
patches of fog
Probability 30% :
Temporary
from 06 at 22 UTC to 07 at 09 UTC
Visibility: 4000 m
mist

TAF: LEBA 060800Z 0609/0709 24003KT 9999 SCT030 TX18/0615Z TN12/0706Z PROB30 TEMPO 0609/0612 1000 BCFG BKN012 PROB30 TEMPO 0622/0709 4000 BR

Weather observations and forecasts of more than 4000 airports (METAR and TAF reports).

The available stations are represented by yellow and red dots on the map.

Hover mouse over dot to see the name of the station.

Then click to see weather observations and forecasts.

To change the map : click on the green buttons with a black cross to zoom in, on the green button with a dash to zoom out, or on the green arrows for adjacent maps.


METAR-TAF: